sensor_id;sensor_type;location;lat;lon;timestamp;P1;durP1;ratioP1;P2;durP2;ratioP2
10403;SDS011;5248;47.374;8.486;2023-04-23T00:01:35;4.53;;;3.00;;
10403;SDS011;5248;47.374;8.486;2023-04-23T00:04:03;4.07;;;2.67;;
10403;SDS011;5248;47.374;8.486;2023-04-23T00:06:31;3.00;;;2.80;;
10403;SDS011;5248;47.374;8.486;2023-04-23T00:08:58;3.77;;;2.90;;
10403;SDS011;5248;47.374;8.486;2023-04-23T00:11:25;4.43;;;3.00;;
10403;SDS011;5248;47.374;8.486;2023-04-23T00:13:54;3.50;;;3.20;;
10403;SDS011;5248;47.374;8.486;2023-04-23T00:16:21;4.57;;;3.07;;
10403;SDS011;5248;47.374;8.486;2023-04-23T00:18:48;3.50;;;3.20;;
10403;SDS011;5248;47.374;8.486;2023-04-23T00:21:15;3.20;;;2.90;;
10403;SDS011;5248;47.374;8.486;2023-04-23T00:23:41;4.33;;;2.80;;
10403;SDS011;5248;47.374;8.486;2023-04-23T00:26:08;3.33;;;2.87;;
10403;SDS011;5248;47.374;8.486;2023-04-23T00:28:34;3.10;;;2.90;;
10403;SDS011;5248;47.374;8.486;2023-04-23T00:31:02;4.50;;;3.10;;
10403;SDS011;5248;47.374;8.486;2023-04-23T00:33:28;4.67;;;3.17;;
10403;SDS011;5248;47.374;8.486;2023-04-23T00:35:55;4.63;;;3.20;;
10403;SDS011;5248;47.374;8.486;2023-04-23T00:38:21;4.50;;;3.30;;
10403;SDS011;5248;47.374;8.486;2023-04-23T00:40:48;4.27;;;3.03;;
10403;SDS011;5248;47.374;8.486;2023-04-23T00:43:14;3.70;;;3.10;;
10403;SDS011;5248;47.374;8.486;2023-04-23T00:45:41;3.60;;;3.30;;
10403;SDS011;5248;47.374;8.486;2023-04-23T00:48:09;4.73;;;2.93;;
10403;SDS011;5248;47.374;8.486;2023-04-23T00:50:36;3.50;;;3.13;;
10403;SDS011;5248;47.374;8.486;2023-04-23T00:53:03;3.40;;;3.00;;
10403;SDS011;5248;47.374;8.486;2023-04-23T00:55:29;3.13;;;2.90;;
10403;SDS011;5248;47.374;8.486;2023-04-23T00:57:56;3.27;;;3.00;;
10403;SDS011;5248;47.374;8.486;2023-04-23T01:00:22;3.07;;;2.87;;
10403;SDS011;5248;47.374;8.486;2023-04-23T01:02:49;4.17;;;3.57;;
10403;SDS011;5248;47.374;8.486;2023-04-23T01:05:18;3.50;;;3.20;;
10403;SDS011;5248;47.374;8.486;2023-04-23T01:07:45;3.53;;;3.23;;
10403;SDS011;5248;47.374;8.486;2023-04-23T01:10:12;4.77;;;3.40;;
10403;SDS011;5248;47.374;8.486;2023-04-23T01:12:40;3.57;;;3.27;;
10403;SDS011;5248;47.374;8.486;2023-04-23T01:15:07;4.17;;;3.43;;
10403;SDS011;5248;47.374;8.486;2023-04-23T01:17:34;3.67;;;2.90;;
10403;SDS011;5248;47.374;8.486;2023-04-23T01:20:01;3.80;;;3.43;;
10403;SDS011;5248;47.374;8.486;2023-04-23T01:22:31;4.20;;;3.47;;
10403;SDS011;5248;47.374;8.486;2023-04-23T01:24:58;3.30;;;3.10;;
10403;SDS011;5248;47.374;8.486;2023-04-23T01:27:25;3.50;;;3.20;;
10403;SDS011;5248;47.374;8.486;2023-04-23T01:29:51;3.43;;;3.13;;
10403;SDS011;5248;47.374;8.486;2023-04-23T01:32:18;3.50;;;3.20;;
10403;SDS011;5248;47.374;8.486;2023-04-23T01:34:45;3.50;;;3.20;;
10403;SDS011;5248;47.374;8.486;2023-04-23T01:37:12;3.20;;;3.00;;
10403;SDS011;5248;47.374;8.486;2023-04-23T01:39:41;3.23;;;2.93;;
10403;SDS011;5248;47.374;8.486;2023-04-23T01:42:07;4.83;;;3.17;;
10403;SDS011;5248;47.374;8.486;2023-04-23T01:44:34;5.73;;;2.87;;
10403;SDS011;5248;47.374;8.486;2023-04-23T01:47:00;3.23;;;3.03;;
10403;SDS011;5248;47.374;8.486;2023-04-23T01:49:27;3.40;;;3.20;;
10403;SDS011;5248;47.374;8.486;2023-04-23T01:51:54;3.50;;;3.30;;
10403;SDS011;5248;47.374;8.486;2023-04-23T01:54:20;3.63;;;3.33;;
10403;SDS011;5248;47.374;8.486;2023-04-23T01:56:50;4.10;;;3.63;;
10403;SDS011;5248;47.374;8.486;2023-04-23T01:59:19;3.67;;;3.23;;
10403;SDS011;5248;47.374;8.486;2023-04-23T02:01:46;3.07;;;2.80;;
10403;SDS011;5248;47.374;8.486;2023-04-23T02:04:14;5.03;;;3.67;;
10403;SDS011;5248;47.374;8.486;2023-04-23T02:06:42;4.03;;;3.17;;
10403;SDS011;5248;47.374;8.486;2023-04-23T02:09:09;4.17;;;3.80;;
10403;SDS011;5248;47.374;8.486;2023-04-23T02:11:36;3.63;;;3.10;;
10403;SDS011;5248;47.374;8.486;2023-04-23T02:14:04;5.00;;;3.03;;
10403;SDS011;5248;47.374;8.486;2023-04-23T02:16:31;3.20;;;2.90;;
10403;SDS011;5248;47.374;8.486;2023-04-23T02:18:58;6.03;;;3.40;;
10403;SDS011;5248;47.374;8.486;2023-04-23T02:21:25;5.07;;;3.00;;
10403;SDS011;5248;47.374;8.486;2023-04-23T02:23:52;3.50;;;3.20;;
10403;SDS011;5248;47.374;8.486;2023-04-23T02:26:18;3.90;;;3.20;;
10403;SDS011;5248;47.374;8.486;2023-04-23T02:28:46;3.40;;;3.10;;
10403;SDS011;5248;47.374;8.486;2023-04-23T02:31:14;4.10;;;2.97;;
10403;SDS011;5248;47.374;8.486;2023-04-23T02:33:42;3.63;;;3.30;;
10403;SDS011;5248;47.374;8.486;2023-04-23T02:36:08;2.70;;;2.50;;
10403;SDS011;5248;47.374;8.486;2023-04-23T02:38:36;4.10;;;3.37;;
10403;SDS011;5248;47.374;8.486;2023-04-23T02:41:05;7.53;;;4.00;;
10403;SDS011;5248;47.374;8.486;2023-04-23T02:43:32;3.47;;;3.23;;
10403;SDS011;5248;47.374;8.486;2023-04-23T02:45:58;4.40;;;3.37;;
10403;SDS011;5248;47.374;8.486;2023-04-23T02:48:33;3.30;;;3.10;;
10403;SDS011;5248;47.374;8.486;2023-04-23T02:51:00;3.70;;;3.43;;
10403;SDS011;5248;47.374;8.486;2023-04-23T02:53:27;3.57;;;3.27;;
10403;SDS011;5248;47.374;8.486;2023-04-23T02:55:54;3.93;;;3.53;;
10403;SDS011;5248;47.374;8.486;2023-04-23T02:58:21;3.33;;;3.03;;
10403;SDS011;5248;47.374;8.486;2023-04-23T03:00:47;3.20;;;2.90;;
10403;SDS011;5248;47.374;8.486;2023-04-23T03:03:14;3.60;;;3.30;;
10403;SDS011;5248;47.374;8.486;2023-04-23T03:05:42;3.70;;;3.23;;
10403;SDS011;5248;47.374;8.486;2023-04-23T03:08:08;3.83;;;3.50;;
10403;SDS011;5248;47.374;8.486;2023-04-23T03:10:35;4.53;;;3.10;;
10403;SDS011;5248;47.374;8.486;2023-04-23T03:13:01;3.67;;;3.37;;
10403;SDS011;5248;47.374;8.486;2023-04-23T03:15:28;4.00;;;3.70;;
10403;SDS011;5248;47.374;8.486;2023-04-23T03:17:55;3.60;;;3.30;;
10403;SDS011;5248;47.374;8.486;2023-04-23T03:20:21;3.60;;;3.20;;
10403;SDS011;5248;47.374;8.486;2023-04-23T03:22:49;3.43;;;3.23;;
10403;SDS011;5248;47.374;8.486;2023-04-23T03:25:15;3.50;;;3.20;;
10403;SDS011;5248;47.374;8.486;2023-04-23T03:27:43;3.37;;;3.07;;
10403;SDS011;5248;47.374;8.486;2023-04-23T03:30:09;4.80;;;3.20;;
10403;SDS011;5248;47.374;8.486;2023-04-23T03:32:36;3.70;;;3.47;;
10403;SDS011;5248;47.374;8.486;2023-04-23T03:35:03;3.10;;;2.90;;
10403;SDS011;5248;47.374;8.486;2023-04-23T03:37:30;4.23;;;3.37;;
10403;SDS011;5248;47.374;8.486;2023-04-23T03:39:58;3.37;;;3.17;;
10403;SDS011;5248;47.374;8.486;2023-04-23T03:42:27;3.30;;;3.10;;
10403;SDS011;5248;47.374;8.486;2023-04-23T03:44:53;4.07;;;3.13;;
10403;SDS011;5248;47.374;8.486;2023-04-23T03:47:20;3.17;;;2.90;;
10403;SDS011;5248;47.374;8.486;2023-04-23T03:49:46;3.60;;;3.30;;
10403;SDS011;5248;47.374;8.486;2023-04-23T03:52:13;4.37;;;3.43;;
10403;SDS011;5248;47.374;8.486;2023-04-23T03:54:40;3.73;;;3.03;;
10403;SDS011;5248;47.374;8.486;2023-04-23T03:57:08;4.23;;;3.30;;
10403;SDS011;5248;47.374;8.486;2023-04-23T03:59:35;4.33;;;3.33;;
10403;SDS011;5248;47.374;8.486;2023-04-23T04:02:02;5.27;;;3.33;;
10403;SDS011;5248;47.374;8.486;2023-04-23T04:04:29;4.10;;;3.10;;
10403;SDS011;5248;47.374;8.486;2023-04-23T04:06:55;3.10;;;2.90;;
10403;SDS011;5248;47.374;8.486;2023-04-23T04:09:22;3.20;;;2.90;;
10403;SDS011;5248;47.374;8.486;2023-04-23T04:11:48;3.43;;;3.13;;
10403;SDS011;5248;47.374;8.486;2023-04-23T04:14:16;3.73;;;3.43;;
10403;SDS011;5248;47.374;8.486;2023-04-23T04:16:42;3.33;;;3.03;;
10403;SDS011;5248;47.374;8.486;2023-04-23T04:19:09;4.87;;;3.37;;
10403;SDS011;5248;47.374;8.486;2023-04-23T04:21:36;4.07;;;3.30;;
10403;SDS011;5248;47.374;8.486;2023-04-23T04:24:02;3.30;;;2.97;;
10403;SDS011;5248;47.374;8.486;2023-04-23T04:26:29;3.33;;;3.13;;
10403;SDS011;5248;47.374;8.486;2023-04-23T04:28:56;3.37;;;3.13;;
10403;SDS011;5248;47.374;8.486;2023-04-23T04:31:24;3.03;;;2.83;;
10403;SDS011;5248;47.374;8.486;2023-04-23T04:33:52;3.60;;;3.30;;
10403;SDS011;5248;47.374;8.486;2023-04-23T04:36:19;3.50;;;3.20;;
10403;SDS011;5248;47.374;8.486;2023-04-23T04:38:45;3.43;;;3.17;;
10403;SDS011;5248;47.374;8.486;2023-04-23T04:41:12;3.70;;;3.30;;
10403;SDS011;5248;47.374;8.486;2023-04-23T04:43:39;4.20;;;3.80;;
10403;SDS011;5248;47.374;8.486;2023-04-23T04:46:07;3.57;;;3.30;;
10403;SDS011;5248;47.374;8.486;2023-04-23T04:48:37;3.77;;;3.47;;
10403;SDS011;5248;47.374;8.486;2023-04-23T04:51:04;3.67;;;3.37;;
10403;SDS011;5248;47.374;8.486;2023-04-23T04:53:30;7.73;;;3.77;;
10403;SDS011;5248;47.374;8.486;2023-04-23T04:55:57;4.53;;;3.73;;
10403;SDS011;5248;47.374;8.486;2023-04-23T04:58:23;5.33;;;3.60;;
10403;SDS011;5248;47.374;8.486;2023-04-23T05:00:50;4.07;;;3.77;;
10403;SDS011;5248;47.374;8.486;2023-04-23T05:03:16;4.27;;;3.83;;
10403;SDS011;5248;47.374;8.486;2023-04-23T05:05:44;5.37;;;4.13;;
10403;SDS011;5248;47.374;8.486;2023-04-23T05:08:12;5.07;;;4.37;;
10403;SDS011;5248;47.374;8.486;2023-04-23T05:10:40;4.43;;;3.97;;
10403;SDS011;5248;47.374;8.486;2023-04-23T05:13:07;3.93;;;3.63;;
10403;SDS011;5248;47.374;8.486;2023-04-23T05:15:33;3.97;;;3.67;;
10403;SDS011;5248;47.374;8.486;2023-04-23T05:18:01;4.40;;;4.00;;
10403;SDS011;5248;47.374;8.486;2023-04-23T05:20:29;6.40;;;4.23;;
10403;SDS011;5248;47.374;8.486;2023-04-23T05:22:56;3.93;;;3.70;;
10403;SDS011;5248;47.374;8.486;2023-04-23T05:25:23;4.87;;;4.03;;
10403;SDS011;5248;47.374;8.486;2023-04-23T05:27:50;4.03;;;3.73;;
10403;SDS011;5248;47.374;8.486;2023-04-23T05:30:17;5.60;;;4.40;;
10403;SDS011;5248;47.374;8.486;2023-04-23T05:32:43;4.67;;;4.30;;
10403;SDS011;5248;47.374;8.486;2023-04-23T05:35:10;4.47;;;4.17;;
10403;SDS011;5248;47.374;8.486;2023-04-23T05:37:36;5.63;;;5.23;;
10403;SDS011;5248;47.374;8.486;2023-04-23T05:40:05;7.37;;;4.70;;
10403;SDS011;5248;47.374;8.486;2023-04-23T05:42:33;5.00;;;4.60;;
10403;SDS011;5248;47.374;8.486;2023-04-23T05:44:59;5.77;;;5.23;;
10403;SDS011;5248;47.374;8.486;2023-04-23T05:47:27;5.43;;;5.00;;
10403;SDS011;5248;47.374;8.486;2023-04-23T05:49:54;5.37;;;4.87;;
10403;SDS011;5248;47.374;8.486;2023-04-23T05:52:21;5.53;;;4.90;;
10403;SDS011;5248;47.374;8.486;2023-04-23T05:54:49;6.83;;;4.90;;
10403;SDS011;5248;47.374;8.486;2023-04-23T05:57:17;5.53;;;5.00;;
10403;SDS011;5248;47.374;8.486;2023-04-23T05:59:43;5.77;;;5.27;;
10403;SDS011;5248;47.374;8.486;2023-04-23T06:02:10;5.30;;;4.90;;
10403;SDS011;5248;47.374;8.486;2023-04-23T06:04:36;5.67;;;5.07;;
10403;SDS011;5248;47.374;8.486;2023-04-23T06:07:03;5.27;;;4.87;;
10403;SDS011;5248;47.374;8.486;2023-04-23T06:09:29;5.50;;;5.10;;
10403;SDS011;5248;47.374;8.486;2023-04-23T06:11:56;5.97;;;5.43;;
10403;SDS011;5248;47.374;8.486;2023-04-23T06:14:23;6.97;;;5.60;;
10403;SDS011;5248;47.374;8.486;2023-04-23T06:16:50;6.50;;;5.60;;
10403;SDS011;5248;47.374;8.486;2023-04-23T06:19:16;5.90;;;5.40;;
10403;SDS011;5248;47.374;8.486;2023-04-23T06:21:43;6.10;;;5.50;;
10403;SDS011;5248;47.374;8.486;2023-04-23T06:24:09;6.47;;;5.60;;
10403;SDS011;5248;47.374;8.486;2023-04-23T06:26:36;6.53;;;5.80;;
10403;SDS011;5248;47.374;8.486;2023-04-23T06:29:02;6.07;;;5.43;;
10403;SDS011;5248;47.374;8.486;2023-04-23T06:31:31;6.80;;;6.00;;
10403;SDS011;5248;47.374;8.486;2023-04-23T06:33:57;7.03;;;5.13;;
10403;SDS011;5248;47.374;8.486;2023-04-23T06:36:24;6.23;;;5.50;;
10403;SDS011;5248;47.374;8.486;2023-04-23T06:38:50;6.60;;;5.93;;
10403;SDS011;5248;47.374;8.486;2023-04-23T06:41:17;6.00;;;5.50;;
10403;SDS011;5248;47.374;8.486;2023-04-23T06:43:43;6.63;;;5.90;;
10403;SDS011;5248;47.374;8.486;2023-04-23T06:46:12;7.07;;;6.37;;
10403;SDS011;5248;47.374;8.486;2023-04-23T06:48:40;8.23;;;6.57;;
10403;SDS011;5248;47.374;8.486;2023-04-23T06:51:06;6.57;;;5.97;;
10403;SDS011;5248;47.374;8.486;2023-04-23T06:53:33;7.83;;;7.03;;
10403;SDS011;5248;47.374;8.486;2023-04-23T06:55:59;7.67;;;6.93;;
10403;SDS011;5248;47.374;8.486;2023-04-23T06:58:26;7.47;;;6.87;;
10403;SDS011;5248;47.374;8.486;2023-04-23T07:00:56;8.43;;;7.63;;
10403;SDS011;5248;47.374;8.486;2023-04-23T07:03:24;8.83;;;8.00;;
10403;SDS011;5248;47.374;8.486;2023-04-23T07:05:54;8.20;;;7.40;;
10403;SDS011;5248;47.374;8.486;2023-04-23T07:08:20;8.90;;;8.20;;
10403;SDS011;5248;47.374;8.486;2023-04-23T07:10:47;9.73;;;8.73;;
10403;SDS011;5248;47.374;8.486;2023-04-23T07:13:14;8.40;;;7.60;;
10403;SDS011;5248;47.374;8.486;2023-04-23T07:15:40;9.00;;;8.10;;
10403;SDS011;5248;47.374;8.486;2023-04-23T07:18:07;9.13;;;8.23;;
10403;SDS011;5248;47.374;8.486;2023-04-23T07:20:34;9.13;;;8.33;;
10403;SDS011;5248;47.374;8.486;2023-04-23T07:23:02;8.53;;;7.70;;
10403;SDS011;5248;47.374;8.486;2023-04-23T07:25:29;8.33;;;7.60;;
10403;SDS011;5248;47.374;8.486;2023-04-23T07:27:56;8.00;;;7.20;;
10403;SDS011;5248;47.374;8.486;2023-04-23T07:30:23;8.03;;;7.27;;
10403;SDS011;5248;47.374;8.486;2023-04-23T07:32:51;7.90;;;7.10;;
10403;SDS011;5248;47.374;8.486;2023-04-23T07:35:17;7.07;;;6.37;;
10403;SDS011;5248;47.374;8.486;2023-04-23T07:37:43;7.45;;;6.85;;
10403;SDS011;5248;47.374;8.486;2023-04-23T07:40:11;6.93;;;6.33;;
10403;SDS011;5248;47.374;8.486;2023-04-23T07:42:38;6.40;;;5.90;;
10403;SDS011;5248;47.374;8.486;2023-04-23T07:45:05;8.65;;;5.80;;
10403;SDS011;5248;47.374;8.486;2023-04-23T07:47:32;6.47;;;5.97;;
10403;SDS011;5248;47.374;8.486;2023-04-23T07:49:58;7.23;;;5.97;;
10403;SDS011;5248;47.374;8.486;2023-04-23T07:52:25;6.18;;;5.68;;
10403;SDS011;5248;47.374;8.486;2023-04-23T07:54:51;6.43;;;5.82;;
10403;SDS011;5248;47.374;8.486;2023-04-23T07:57:19;6.13;;;5.20;;
10403;SDS011;5248;47.374;8.486;2023-04-23T07:59:45;5.47;;;4.97;;
10403;SDS011;5248;47.374;8.486;2023-04-23T08:02:12;6.25;;;5.18;;
10403;SDS011;5248;47.374;8.486;2023-04-23T08:04:38;6.18;;;5.68;;
10403;SDS011;5248;47.374;8.486;2023-04-23T08:07:05;5.82;;;5.32;;
10403;SDS011;5248;47.374;8.486;2023-04-23T08:09:31;5.90;;;4.78;;
10403;SDS011;5248;47.374;8.486;2023-04-23T08:11:58;5.50;;;5.00;;
10403;SDS011;5248;47.374;8.486;2023-04-23T08:14:25;5.07;;;4.68;;
10403;SDS011;5248;47.374;8.486;2023-04-23T08:16:52;4.40;;;4.10;;
10403;SDS011;5248;47.374;8.486;2023-04-23T08:19:18;4.07;;;3.78;;
10403;SDS011;5248;47.374;8.486;2023-04-23T08:21:45;4.60;;;4.28;;
10403;SDS011;5248;47.374;8.486;2023-04-23T08:24:12;3.60;;;3.30;;
10403;SDS011;5248;47.374;8.486;2023-04-23T08:26:39;3.95;;;3.63;;
10403;SDS011;5248;47.374;8.486;2023-04-23T08:29:05;4.22;;;3.35;;
10403;SDS011;5248;47.374;8.486;2023-04-23T08:31:33;4.93;;;3.30;;
10403;SDS011;5248;47.374;8.486;2023-04-23T08:34:00;5.57;;;3.40;;
10403;SDS011;5248;47.374;8.486;2023-04-23T08:36:26;4.15;;;3.10;;
10403;SDS011;5248;47.374;8.486;2023-04-23T08:38:53;3.13;;;2.85;;
10403;SDS011;5248;47.374;8.486;2023-04-23T08:41:20;5.88;;;3.28;;
10403;SDS011;5248;47.374;8.486;2023-04-23T08:43:49;4.13;;;3.00;;
10403;SDS011;5248;47.374;8.486;2023-04-23T08:46:18;3.72;;;3.30;;
10403;SDS011;5248;47.374;8.486;2023-04-23T08:48:46;3.92;;;3.20;;
10403;SDS011;5248;47.374;8.486;2023-04-23T08:51:15;2.88;;;2.67;;
10403;SDS011;5248;47.374;8.486;2023-04-23T08:53:43;3.53;;;2.92;;
10403;SDS011;5248;47.374;8.486;2023-04-23T08:56:10;3.60;;;3.30;;
10403;SDS011;5248;47.374;8.486;2023-04-23T08:58:38;3.42;;;3.13;;
10403;SDS011;5248;47.374;8.486;2023-04-23T09:01:05;2.03;;;1.92;;
10403;SDS011;5248;47.374;8.486;2023-04-23T09:03:32;2.50;;;1.35;;
10403;SDS011;5248;47.374;8.486;2023-04-23T09:06:00;2.47;;;2.10;;
10403;SDS011;5248;47.374;8.486;2023-04-23T09:08:27;1.80;;;1.23;;
10403;SDS011;5248;47.374;8.486;2023-04-23T09:10:53;2.13;;;1.90;;
10403;SDS011;5248;47.374;8.486;2023-04-23T09:13:25;3.72;;;2.83;;
10403;SDS011;5248;47.374;8.486;2023-04-23T09:15:51;2.90;;;2.70;;
10403;SDS011;5248;47.374;8.486;2023-04-23T09:18:18;5.10;;;3.42;;
10403;SDS011;5248;47.374;8.486;2023-04-23T09:20:45;3.28;;;2.60;;
10403;SDS011;5248;47.374;8.486;2023-04-23T09:23:13;3.03;;;2.60;;
10403;SDS011;5248;47.374;8.486;2023-04-23T09:25:40;2.40;;;2.28;;
10403;SDS011;5248;47.374;8.486;2023-04-23T09:28:07;3.97;;;2.22;;
10403;SDS011;5248;47.374;8.486;2023-04-23T09:30:37;2.75;;;1.60;;
10403;SDS011;5248;47.374;8.486;2023-04-23T09:33:04;2.85;;;2.00;;
10403;SDS011;5248;47.374;8.486;2023-04-23T09:35:31;2.65;;;1.77;;
10403;SDS011;5248;47.374;8.486;2023-04-23T09:37:59;1.88;;;1.77;;
10403;SDS011;5248;47.374;8.486;2023-04-23T09:40:31;2.88;;;2.10;;
10403;SDS011;5248;47.374;8.486;2023-04-23T09:42:57;3.45;;;1.80;;
10403;SDS011;5248;47.374;8.486;2023-04-23T09:45:24;2.40;;;2.20;;
10403;SDS011;5248;47.374;8.486;2023-04-23T09:47:51;3.83;;;1.80;;
10403;SDS011;5248;47.374;8.486;2023-04-23T09:50:19;2.10;;;1.83;;
10403;SDS011;5248;47.374;8.486;2023-04-23T09:52:57;3.30;;;2.28;;
10403;SDS011;5248;47.374;8.486;2023-04-23T09:55:27;3.75;;;2.80;;
10403;SDS011;5248;47.374;8.486;2023-04-23T09:57:56;2.97;;;2.78;;
10403;SDS011;5248;47.374;8.486;2023-04-23T10:00:23;3.28;;;2.13;;
10403;SDS011;5248;47.374;8.486;2023-04-23T10:02:53;2.40;;;2.20;;
10403;SDS011;5248;47.374;8.486;2023-04-23T10:05:20;4.95;;;2.22;;
10403;SDS011;5248;47.374;8.486;2023-04-23T10:07:47;2.65;;;2.45;;
10403;SDS011;5248;47.374;8.486;2023-04-23T10:10:14;2.35;;;2.13;;
10403;SDS011;5248;47.374;8.486;2023-04-23T10:12:41;2.70;;;2.50;;
10403;SDS011;5248;47.374;8.486;2023-04-23T10:15:09;2.50;;;2.30;;
10403;SDS011;5248;47.374;8.486;2023-04-23T10:17:37;3.13;;;2.10;;
10403;SDS011;5248;47.374;8.486;2023-04-23T10:20:05;2.72;;;2.53;;
10403;SDS011;5248;47.374;8.486;2023-04-23T10:22:33;2.67;;;2.47;;
10403;SDS011;5248;47.374;8.486;2023-04-23T10:25:03;2.60;;;2.40;;
10403;SDS011;5248;47.374;8.486;2023-04-23T10:27:33;3.22;;;2.92;;
10403;SDS011;5248;47.374;8.486;2023-04-23T10:30:03;4.05;;;2.35;;
10403;SDS011;5248;47.374;8.486;2023-04-23T10:32:32;2.88;;;2.60;;
10403;SDS011;5248;47.374;8.486;2023-04-23T10:34:59;3.40;;;3.10;;
10403;SDS011;5248;47.374;8.486;2023-04-23T10:37:25;3.78;;;2.90;;
10403;SDS011;5248;47.374;8.486;2023-04-23T10:39:53;2.90;;;2.70;;
10403;SDS011;5248;47.374;8.486;2023-04-23T10:42:20;2.90;;;2.60;;
10403;SDS011;5248;47.374;8.486;2023-04-23T10:44:47;3.33;;;2.60;;
10403;SDS011;5248;47.374;8.486;2023-04-23T10:47:14;5.85;;;2.70;;
10403;SDS011;5248;47.374;8.486;2023-04-23T10:49:45;2.55;;;2.45;;
10403;SDS011;5248;47.374;8.486;2023-04-23T10:52:14;2.60;;;2.40;;
10403;SDS011;5248;47.374;8.486;2023-04-23T10:54:42;3.22;;;2.42;;
10403;SDS011;5248;47.374;8.486;2023-04-23T10:57:12;6.22;;;5.72;;
10403;SDS011;5248;47.374;8.486;2023-04-23T10:59:40;3.33;;;3.03;;
10403;SDS011;5248;47.374;8.486;2023-04-23T11:02:16;2.47;;;2.28;;
10403;SDS011;5248;47.374;8.486;2023-04-23T11:04:44;4.47;;;2.47;;
10403;SDS011;5248;47.374;8.486;2023-04-23T11:07:13;2.50;;;2.30;;
10403;SDS011;5248;47.374;8.486;2023-04-23T11:09:40;4.03;;;2.63;;
10403;SDS011;5248;47.374;8.486;2023-04-23T11:12:09;2.95;;;2.60;;
10403;SDS011;5248;47.374;8.486;2023-04-23T11:14:41;2.72;;;2.53;;
10403;SDS011;5248;47.374;8.486;2023-04-23T11:17:11;3.05;;;2.30;;
10403;SDS011;5248;47.374;8.486;2023-04-23T11:19:38;2.20;;;2.00;;
10403;SDS011;5248;47.374;8.486;2023-04-23T11:22:11;3.40;;;3.00;;
10403;SDS011;5248;47.374;8.486;2023-04-23T11:24:40;2.60;;;2.38;;
10403;SDS011;5248;47.374;8.486;2023-04-23T11:27:07;2.47;;;2.28;;
10403;SDS011;5248;47.374;8.486;2023-04-23T11:29:35;3.05;;;2.63;;
10403;SDS011;5248;47.374;8.486;2023-04-23T11:32:02;2.35;;;2.13;;
10403;SDS011;5248;47.374;8.486;2023-04-23T11:34:34;2.17;;;2.00;;
10403;SDS011;5248;47.374;8.486;2023-04-23T11:37:01;2.28;;;2.08;;
10403;SDS011;5248;47.374;8.486;2023-04-23T11:39:30;2.72;;;2.53;;
10403;SDS011;5248;47.374;8.486;2023-04-23T11:41:56;2.40;;;2.20;;
10403;SDS011;5248;47.374;8.486;2023-04-23T11:44:27;1.98;;;1.88;;
10403;SDS011;5248;47.374;8.486;2023-04-23T11:46:53;2.42;;;2.22;;
10403;SDS011;5248;47.374;8.486;2023-04-23T11:49:20;4.50;;;2.25;;
10403;SDS011;5248;47.374;8.486;2023-04-23T11:51:46;2.00;;;1.90;;
10403;SDS011;5248;47.374;8.486;2023-04-23T11:54:13;3.20;;;2.05;;
10403;SDS011;5248;47.374;8.486;2023-04-23T11:56:41;4.35;;;1.75;;
10403;SDS011;5248;47.374;8.486;2023-04-23T11:59:08;1.98;;;1.85;;
10403;SDS011;5248;47.374;8.486;2023-04-23T12:01:41;2.30;;;1.95;;
10403;SDS011;5248;47.374;8.486;2023-04-23T12:04:09;2.25;;;1.75;;
10403;SDS011;5248;47.374;8.486;2023-04-23T12:06:36;3.20;;;1.90;;
10403;SDS011;5248;47.374;8.486;2023-04-23T12:09:03;2.05;;;1.77;;
10403;SDS011;5248;47.374;8.486;2023-04-23T12:11:30;4.70;;;1.70;;
10403;SDS011;5248;47.374;8.486;2023-04-23T12:13:57;2.25;;;1.88;;
10403;SDS011;5248;47.374;8.486;2023-04-23T12:16:32;3.88;;;1.73;;
10403;SDS011;5248;47.374;8.486;2023-04-23T12:19:00;2.03;;;1.85;;
10403;SDS011;5248;47.374;8.486;2023-04-23T12:21:26;3.33;;;1.88;;
10403;SDS011;5248;47.374;8.486;2023-04-23T12:23:54;2.42;;;1.80;;
10403;SDS011;5248;47.374;8.486;2023-04-23T12:26:21;2.83;;;1.65;;
10403;SDS011;5248;47.374;8.486;2023-04-23T12:28:48;2.05;;;1.70;;
10403;SDS011;5248;47.374;8.486;2023-04-23T12:31:18;2.17;;;1.90;;
10403;SDS011;5248;47.374;8.486;2023-04-23T12:33:46;1.73;;;1.50;;
10403;SDS011;5248;47.374;8.486;2023-04-23T12:38:39;2.85;;;1.80;;
10403;SDS011;5248;47.374;8.486;2023-04-23T12:41:06;2.15;;;1.73;;
10403;SDS011;5248;47.374;8.486;2023-04-23T12:43:33;2.05;;;1.65;;
10403;SDS011;5248;47.374;8.486;2023-04-23T12:45:59;3.20;;;1.83;;
10403;SDS011;5248;47.374;8.486;2023-04-23T12:48:27;1.48;;;1.38;;
10403;SDS011;5248;47.374;8.486;2023-04-23T12:50:53;2.33;;;2.13;;
10403;SDS011;5248;47.374;8.486;2023-04-23T12:53:20;4.00;;;1.75;;
10403;SDS011;5248;47.374;8.486;2023-04-23T12:55:47;1.95;;;1.63;;
10403;SDS011;5248;47.374;8.486;2023-04-23T12:58:14;1.95;;;1.70;;
10403;SDS011;5248;47.374;8.486;2023-04-23T13:00:40;1.52;;;1.40;;
10403;SDS011;5248;47.374;8.486;2023-04-23T13:03:07;1.67;;;1.50;;
10403;SDS011;5248;47.374;8.486;2023-04-23T13:08:02;3.50;;;1.52;;
10403;SDS011;5248;47.374;8.486;2023-04-23T13:10:28;2.33;;;1.30;;
10403;SDS011;5248;47.374;8.486;2023-04-23T13:12:56;1.90;;;1.80;;
10403;SDS011;5248;47.374;8.486;2023-04-23T13:15:23;3.40;;;1.95;;
10403;SDS011;5248;47.374;8.486;2023-04-23T13:17:49;2.05;;;1.52;;
10403;SDS011;5248;47.374;8.486;2023-04-23T13:20:15;1.60;;;1.50;;
10403;SDS011;5248;47.374;8.486;2023-04-23T13:22:43;1.73;;;1.63;;
10403;SDS011;5248;47.374;8.486;2023-04-23T13:25:10;1.80;;;1.70;;
10403;SDS011;5248;47.374;8.486;2023-04-23T13:27:36;1.10;;;1.10;;
10403;SDS011;5248;47.374;8.486;2023-04-23T13:30:05;1.70;;;1.60;;
10403;SDS011;5248;47.374;8.486;2023-04-23T13:32:32;2.08;;;1.67;;
10403;SDS011;5248;47.374;8.486;2023-04-23T13:34:58;1.98;;;1.70;;
10403;SDS011;5248;47.374;8.486;2023-04-23T13:37:27;4.80;;;4.20;;
10403;SDS011;5248;47.374;8.486;2023-04-23T13:39:56;2.38;;;2.17;;
10403;SDS011;5248;47.374;8.486;2023-04-23T13:42:23;4.28;;;2.78;;
10403;SDS011;5248;47.374;8.486;2023-04-23T13:44:49;2.00;;;1.90;;
10403;SDS011;5248;47.374;8.486;2023-04-23T13:47:16;2.17;;;1.63;;
10403;SDS011;5248;47.374;8.486;2023-04-23T13:49:44;4.55;;;2.03;;
10403;SDS011;5248;47.374;8.486;2023-04-23T13:52:10;1.90;;;1.80;;
10403;SDS011;5248;47.374;8.486;2023-04-23T13:54:37;2.97;;;2.78;;
10403;SDS011;5248;47.374;8.486;2023-04-23T13:57:05;1.77;;;1.63;;
10403;SDS011;5248;47.374;8.486;2023-04-23T13:59:34;3.03;;;1.90;;
10403;SDS011;5248;47.374;8.486;2023-04-23T14:02:00;3.40;;;2.00;;
10403;SDS011;5248;47.374;8.486;2023-04-23T14:04:27;2.35;;;1.90;;
10403;SDS011;5248;47.374;8.486;2023-04-23T14:06:53;1.63;;;1.52;;
10403;SDS011;5248;47.374;8.486;2023-04-23T14:09:20;4.10;;;2.03;;
10403;SDS011;5248;47.374;8.486;2023-04-23T14:11:48;2.55;;;2.20;;
10403;SDS011;5248;47.374;8.486;2023-04-23T14:14:16;2.10;;;2.00;;
10403;SDS011;5248;47.374;8.486;2023-04-23T14:16:43;2.13;;;2.00;;
10403;SDS011;5248;47.374;8.486;2023-04-23T14:19:09;2.35;;;1.80;;
10403;SDS011;5248;47.374;8.486;2023-04-23T14:21:36;1.98;;;1.77;;
10403;SDS011;5248;47.374;8.486;2023-04-23T14:24:15;3.60;;;2.38;;
10403;SDS011;5248;47.374;8.486;2023-04-23T14:26:42;2.67;;;1.70;;
10403;SDS011;5248;47.374;8.486;2023-04-23T14:29:18;1.55;;;1.45;;
10403;SDS011;5248;47.374;8.486;2023-04-23T14:31:49;2.30;;;1.60;;
10403;SDS011;5248;47.374;8.486;2023-04-23T14:34:15;2.50;;;1.48;;
10403;SDS011;5248;47.374;8.486;2023-04-23T14:36:42;2.85;;;1.45;;
10403;SDS011;5248;47.374;8.486;2023-04-23T14:39:08;1.95;;;1.23;;
10403;SDS011;5248;47.374;8.486;2023-04-23T14:41:36;2.80;;;1.40;;
10403;SDS011;5248;47.374;8.486;2023-04-23T14:44:04;2.50;;;2.28;;
10403;SDS011;5248;47.374;8.486;2023-04-23T14:46:31;3.15;;;1.55;;
10403;SDS011;5248;47.374;8.486;2023-04-23T14:48:58;3.80;;;1.83;;
10403;SDS011;5248;47.374;8.486;2023-04-23T14:51:24;2.00;;;1.58;;
10403;SDS011;5248;47.374;8.486;2023-04-23T14:53:52;3.25;;;1.70;;
10403;SDS011;5248;47.374;8.486;2023-04-23T14:56:18;2.03;;;1.90;;
10403;SDS011;5248;47.374;8.486;2023-04-23T14:58:45;1.70;;;1.60;;
10403;SDS011;5248;47.374;8.486;2023-04-23T15:01:11;1.83;;;1.55;;
10403;SDS011;5248;47.374;8.486;2023-04-23T15:03:39;1.85;;;1.75;;
10403;SDS011;5248;47.374;8.486;2023-04-23T15:06:06;2.13;;;1.88;;